createdAt,value
2023-05-18T00:01:16.419Z,93.10
2023-05-18T00:03:43.282Z,93.30
2023-05-18T00:06:10.370Z,93.00
2023-05-18T00:08:38.141Z,92.80
2023-05-18T00:11:06.016Z,93.00
2023-05-18T00:13:33.248Z,93.30
2023-05-18T00:16:00.130Z,93.50
2023-05-18T00:18:27.912Z,93.60
2023-05-18T00:20:58.776Z,93.80
2023-05-18T00:23:30.003Z,93.80
2023-05-18T00:25:58.152Z,93.80
2023-05-18T00:28:25.124Z,94.10
2023-05-18T00:30:52.001Z,94.10
2023-05-18T00:33:18.830Z,94.30
2023-05-18T00:35:45.644Z,94.40
2023-05-18T00:38:12.908Z,94.40
2023-05-18T00:40:39.827Z,94.60
2023-05-18T00:43:06.548Z,94.70
2023-05-18T00:45:33.494Z,94.50
2023-05-18T00:48:00.720Z,94.80
2023-05-18T00:50:27.789Z,94.40
2023-05-18T00:52:54.875Z,94.40
2023-05-18T00:55:22.248Z,94.10
2023-05-18T00:57:49.002Z,94.10
2023-05-18T01:00:16.116Z,94.00
2023-05-18T01:02:45.197Z,94.20
2023-05-18T01:05:13.197Z,94.10
2023-05-18T01:07:43.748Z,94.70
2023-05-18T01:10:14.180Z,94.90
2023-05-18T01:12:51.007Z,94.90
2023-05-18T01:15:22.228Z,94.90
2023-05-18T01:18:04.595Z,95.00
2023-05-18T01:20:40.940Z,95.10
2023-05-18T01:23:33.821Z,95.40
2023-05-18T01:26:17.082Z,95.40
2023-05-18T01:28:46.502Z,95.70
2023-05-18T01:31:15.987Z,95.80
2023-05-18T01:33:43.291Z,96.00
2023-05-18T01:36:11.344Z,96.10
2023-05-18T01:38:40.595Z,96.10
2023-05-18T01:41:26.197Z,96.30
2023-05-18T01:43:58.755Z,96.40
2023-05-18T01:46:28.524Z,96.60
2023-05-18T01:49:00.316Z,96.60
2023-05-18T01:51:32.622Z,96.60
2023-05-18T01:54:04.874Z,96.40
2023-05-18T01:56:33.664Z,96.80
2023-05-18T01:59:00.680Z,96.90
2023-05-18T02:01:27.665Z,97.10
2023-05-18T02:03:54.588Z,97.20
2023-05-18T02:06:21.547Z,97.50
2023-05-18T02:08:48.824Z,97.40
2023-05-18T02:11:15.477Z,97.30
2023-05-18T02:13:42.368Z,97.60
2023-05-18T02:16:09.152Z,97.50
2023-05-18T02:18:36.382Z,97.70
2023-05-18T02:21:04.199Z,97.90
2023-05-18T02:23:31.818Z,97.90
2023-05-18T02:25:58.901Z,98.10
2023-05-18T02:28:25.650Z,98.20
2023-05-18T02:30:52.322Z,98.10
2023-05-18T02:33:19.591Z,98.20
2023-05-18T02:35:46.487Z,98.20
2023-05-18T02:38:13.332Z,98.40
2023-05-18T02:40:40.146Z,98.30
2023-05-18T02:43:06.858Z,98.30
2023-05-18T02:45:34.085Z,98.30
2023-05-18T02:48:01.345Z,98.20
2023-05-18T02:50:28.480Z,98.30
2023-05-18T02:52:55.733Z,98.30
2023-05-18T02:55:22.475Z,98.30
2023-05-18T02:58:13.592Z,98.10
2023-05-18T03:01:09.985Z,98.30
2023-05-18T03:03:42.216Z,98.40
2023-05-18T03:06:09.561Z,98.40
2023-05-18T03:08:37.118Z,98.70
2023-05-18T03:11:04.540Z,98.40
2023-05-18T03:13:31.296Z,98.30
2023-05-18T03:15:58.942Z,98.20
2023-05-18T03:18:25.888Z,98.50
2023-05-18T03:20:53.994Z,98.20
2023-05-18T03:23:20.799Z,98.70
2023-05-18T03:25:53.611Z,99.00
2023-05-18T03:28:21.625Z,99.20
2023-05-18T03:30:49.071Z,99.10
2023-05-18T03:33:15.853Z,99.10
2023-05-18T03:35:43.238Z,99.00
2023-05-18T03:38:10.090Z,99.20
2023-05-18T03:40:39.955Z,99.30
2023-05-18T03:43:06.618Z,99.50
2023-05-18T03:45:33.701Z,99.60
2023-05-18T03:48:01.048Z,99.60
2023-05-18T03:50:29.329Z,99.60
2023-05-18T03:52:56.415Z,99.60
2023-05-18T03:55:23.904Z,99.60
2023-05-18T03:57:50.640Z,99.80
2023-05-18T04:00:17.677Z,99.60
2023-05-18T04:02:44.389Z,99.70
2023-05-18T04:05:13.224Z,99.70
2023-05-18T04:07:43.946Z,99.50
2023-05-18T04:10:11.988Z,99.30
2023-05-18T04:12:39.144Z,99.00
2023-05-18T04:15:06.538Z,98.90
2023-05-18T04:17:33.903Z,99.10
2023-05-18T04:20:01.953Z,99.20
2023-05-18T04:22:31.141Z,99.30
2023-05-18T04:24:57.862Z,99.10
2023-05-18T04:27:24.965Z,99.20
2023-05-18T04:29:51.831Z,99.20
2023-05-18T04:32:19.091Z,99.30
2023-05-18T04:34:49.567Z,99.50
2023-05-18T04:37:17.875Z,99.20
2023-05-18T04:39:45.829Z,99.20
2023-05-18T04:42:13.964Z,98.90
2023-05-18T04:44:42.179Z,98.90
2023-05-18T04:47:08.956Z,99.10
2023-05-18T04:49:36.720Z,99.00
2023-05-18T04:52:06.494Z,99.30
2023-05-18T04:54:33.200Z,98.80
2023-05-18T04:56:59.980Z,99.00
2023-05-18T04:59:28.844Z,99.10
2023-05-18T05:01:56.355Z,99.30
2023-05-18T05:04:24.450Z,99.10
2023-05-18T05:06:51.142Z,98.90
2023-05-18T05:09:17.976Z,98.80
2023-05-18T05:11:44.760Z,98.40
2023-05-18T05:14:11.824Z,98.20
2023-05-18T05:16:39.341Z,98.00
2023-05-18T05:19:06.560Z,98.20
2023-05-18T05:21:33.398Z,98.00
2023-05-18T05:24:04.763Z,98.00
2023-05-18T05:26:31.755Z,97.80
2023-05-18T05:28:58.422Z,97.40
2023-05-18T05:31:25.434Z,97.10
2023-05-18T05:33:52.158Z,96.70
2023-05-18T05:36:18.976Z,96.10
2023-05-18T05:38:45.730Z,95.80
2023-05-18T05:41:12.471Z,95.30
2023-05-18T05:43:39.296Z,95.00
2023-05-18T05:46:06.195Z,94.70
2023-05-18T05:48:33.079Z,93.80
2023-05-18T05:51:00.500Z,92.90
2023-05-18T05:53:29.637Z,92.20
2023-05-18T05:55:56.732Z,90.90
2023-05-18T05:58:23.408Z,90.10
2023-05-18T06:00:54.435Z,88.90
2023-05-18T06:03:21.304Z,88.50
2023-05-18T06:05:49.234Z,88.00
2023-05-18T06:08:18.182Z,87.00
2023-05-18T06:10:46.252Z,85.70
2023-05-18T06:13:13.533Z,86.10
2023-05-18T06:15:45.664Z,85.80
2023-05-18T06:18:13.591Z,85.40
2023-05-18T06:20:40.642Z,84.90
2023-05-18T06:23:07.371Z,83.60
2023-05-18T06:26:06.125Z,83.50
2023-05-18T06:29:03.388Z,83.80
2023-05-18T06:31:50.485Z,82.60
2023-05-18T06:34:22.042Z,81.40
2023-05-18T06:36:48.781Z,82.00
2023-05-18T06:39:16.106Z,82.20
2023-05-18T06:41:44.997Z,81.80
2023-05-18T06:44:18.857Z,81.00
2023-05-18T06:47:06.480Z,80.60
2023-05-18T06:49:33.405Z,80.90
2023-05-18T06:52:00.221Z,80.90
2023-05-18T06:54:29.348Z,80.60
2023-05-18T06:56:56.590Z,80.20
2023-05-18T06:59:23.412Z,79.40
2023-05-18T07:01:50.268Z,78.60
2023-05-18T07:04:19.188Z,77.90
2023-05-18T07:06:46.444Z,77.60
2023-05-18T07:09:13.221Z,78.00
2023-05-18T07:11:45.358Z,77.70
2023-05-18T07:14:12.291Z,76.80
2023-05-18T07:16:39.568Z,77.00
2023-05-18T07:19:06.683Z,75.30
2023-05-18T07:21:34.328Z,76.20
2023-05-18T07:24:01.189Z,75.70
2023-05-18T07:26:28.014Z,76.90
2023-05-18T07:28:55.204Z,75.90
2023-05-18T07:31:22.207Z,75.30
2023-05-18T07:33:49.188Z,74.80
2023-05-18T07:36:16.211Z,74.10
2023-05-18T07:38:42.861Z,73.80
2023-05-18T07:41:09.771Z,74.60
2023-05-18T07:43:36.468Z,74.90
2023-05-18T07:46:03.142Z,73.10
2023-05-18T07:48:29.852Z,73.90
2023-05-18T07:50:56.598Z,72.80
2023-05-18T07:53:23.257Z,73.20
2023-05-18T07:55:50.051Z,72.70
2023-05-18T07:58:16.725Z,71.50
2023-05-18T08:00:44.582Z,70.40
2023-05-18T08:03:11.366Z,70.90
2023-05-18T08:05:38.221Z,70.50
2023-05-18T08:08:06.853Z,71.20
2023-05-18T08:10:34.175Z,70.60
2023-05-18T08:13:00.841Z,70.50
2023-05-18T08:15:27.537Z,70.10
2023-05-18T08:17:55.174Z,69.60
2023-05-18T08:20:22.120Z,68.60
2023-05-18T08:22:48.999Z,69.90
2023-05-18T08:25:15.707Z,71.10
2023-05-18T08:27:42.493Z,69.50
2023-05-18T08:30:09.874Z,70.20
2023-05-18T08:32:37.250Z,70.80
2023-05-18T08:35:05.876Z,69.40
2023-05-18T08:37:32.594Z,70.50
2023-05-18T08:40:02.425Z,71.40
2023-05-18T08:42:50.352Z,69.80
2023-05-18T08:45:39.376Z,70.00
2023-05-18T08:48:07.557Z,69.20
2023-05-18T08:50:36.002Z,69.20
2023-05-18T08:53:05.946Z,68.60
2023-05-18T08:55:37.175Z,68.70
2023-05-18T08:58:07.284Z,68.20
2023-05-18T09:00:34.710Z,67.10
2023-05-18T09:03:03.990Z,67.30
2023-05-18T09:05:31.609Z,67.80
2023-05-18T09:07:58.785Z,68.60
2023-05-18T09:10:26.360Z,68.10
2023-05-18T09:12:55.999Z,69.20
2023-05-18T09:15:25.081Z,69.20
2023-05-18T09:17:52.036Z,68.10
2023-05-18T09:20:20.063Z,67.80
2023-05-18T09:22:49.619Z,66.30
2023-05-18T09:25:17.740Z,67.70
2023-05-18T09:27:44.438Z,66.30
2023-05-18T09:30:12.215Z,66.30
2023-05-18T09:32:39.134Z,65.70
2023-05-18T09:35:07.624Z,67.40
2023-05-18T09:37:34.699Z,66.90
2023-05-18T09:40:05.102Z,65.90
2023-05-18T09:42:42.810Z,65.50
2023-05-18T09:45:24.072Z,65.50
2023-05-18T09:47:51.464Z,66.90
2023-05-18T09:50:22.590Z,67.10
2023-05-18T09:52:50.348Z,67.70
2023-05-18T09:55:18.855Z,66.60
2023-05-18T09:57:50.418Z,66.30
2023-05-18T10:00:19.333Z,66.70
2023-05-18T10:02:49.075Z,66.10
2023-05-18T10:05:23.320Z,64.70
2023-05-18T10:07:54.203Z,66.10
2023-05-18T10:10:23.090Z,66.60
2023-05-18T10:12:53.902Z,63.60
2023-05-18T10:15:22.618Z,64.40
2023-05-18T10:17:51.230Z,64.60
2023-05-18T10:20:20.045Z,62.90
2023-05-18T10:22:48.457Z,63.40
2023-05-18T10:25:19.876Z,64.30
2023-05-18T10:27:49.302Z,64.30
2023-05-18T10:30:17.603Z,64.30
2023-05-18T10:32:45.764Z,63.60
2023-05-18T10:35:13.807Z,64.10
2023-05-18T10:37:48.691Z,63.90
2023-05-18T10:40:17.912Z,63.30
2023-05-18T10:42:46.315Z,65.00
2023-05-18T10:45:13.974Z,62.80
2023-05-18T10:47:43.420Z,66.90
2023-05-18T10:50:10.912Z,63.10
2023-05-18T10:52:38.591Z,63.50
2023-05-18T10:55:06.715Z,63.30
2023-05-18T10:57:56.890Z,63.50
2023-05-18T11:00:23.642Z,64.40
2023-05-18T11:02:51.494Z,64.80
2023-05-18T11:05:26.119Z,64.10
2023-05-18T11:08:05.262Z,63.60
2023-05-18T11:10:43.596Z,64.30
2023-05-18T11:13:13.714Z,65.50
2023-05-18T11:16:05.214Z,65.00
2023-05-18T11:18:41.929Z,64.30
2023-05-18T11:21:27.297Z,63.90
2023-05-18T11:24:20.476Z,66.00
2023-05-18T11:27:16.993Z,65.20
2023-05-18T11:29:57.700Z,65.90
2023-05-18T11:32:32.945Z,64.40
2023-05-18T11:34:59.878Z,66.10
2023-05-18T11:37:38.914Z,65.50
2023-05-18T11:40:09.278Z,66.40
2023-05-18T11:42:37.752Z,65.70
2023-05-18T11:45:12.562Z,65.40
2023-05-18T11:47:40.909Z,65.50
2023-05-18T11:50:14.667Z,65.70
2023-05-18T11:52:49.168Z,65.20
2023-05-18T11:55:18.373Z,64.90
2023-05-18T11:57:48.754Z,64.20
2023-05-18T12:00:17.002Z,64.60
2023-05-18T12:02:45.887Z,64.30
2023-05-18T12:05:13.631Z,65.10
2023-05-18T12:07:41.315Z,64.90
2023-05-18T12:10:15.124Z,65.50
2023-05-18T12:12:42.819Z,65.30
2023-05-18T12:15:11.497Z,64.60
2023-05-18T12:17:42.856Z,64.90
2023-05-18T12:20:12.265Z,63.90
2023-05-18T12:22:50.066Z,64.20
2023-05-18T12:25:16.823Z,63.80
2023-05-18T12:27:45.514Z,64.10
2023-05-18T12:30:17.603Z,62.80
2023-05-18T12:32:46.426Z,63.30
2023-05-18T12:35:13.312Z,64.90
2023-05-18T12:37:45.528Z,64.00
2023-05-18T12:40:15.845Z,65.00
2023-05-18T12:42:56.901Z,65.30
2023-05-18T12:45:26.701Z,67.10
2023-05-18T12:47:57.239Z,67.20
2023-05-18T12:50:26.610Z,66.20
2023-05-18T12:52:55.740Z,68.00
2023-05-18T12:55:23.345Z,67.30
2023-05-18T12:58:04.218Z,65.60
2023-05-18T13:00:35.798Z,66.20
2023-05-18T13:03:07.177Z,66.50
2023-05-18T13:05:34.626Z,67.10
2023-05-18T13:08:01.416Z,66.80
2023-05-18T13:10:35.173Z,66.80
2023-05-18T13:13:03.466Z,67.40
2023-05-18T13:15:36.460Z,68.00
2023-05-18T13:18:05.039Z,66.50
2023-05-18T13:20:43.460Z,67.60
2023-05-18T13:23:12.607Z,68.10
2023-05-18T13:25:40.437Z,67.70
2023-05-18T13:28:09.167Z,68.20
2023-05-18T13:30:36.046Z,68.40
2023-05-18T13:33:03.485Z,67.70
2023-05-18T13:35:30.636Z,67.50
2023-05-18T13:37:57.438Z,67.00
2023-05-18T13:40:25.580Z,68.00
2023-05-18T13:42:52.555Z,69.20
2023-05-18T13:45:21.490Z,69.20
2023-05-18T13:47:52.073Z,68.40
2023-05-18T13:50:20.462Z,69.30
2023-05-18T13:52:47.594Z,69.10
2023-05-18T13:55:14.661Z,69.20
2023-05-18T13:57:41.704Z,67.90
2023-05-18T14:00:13.427Z,69.10
2023-05-18T14:02:41.231Z,69.70
2023-05-18T14:05:08.682Z,70.30
2023-05-18T14:07:40.178Z,69.60
2023-05-18T14:10:11.568Z,70.70
2023-05-18T14:12:38.592Z,71.10
2023-05-18T14:15:05.860Z,69.60
2023-05-18T14:17:32.854Z,70.30
2023-05-18T14:19:59.943Z,69.70
2023-05-18T14:22:27.298Z,70.10
2023-05-18T14:24:54.108Z,70.00
2023-05-18T14:27:20.845Z,70.60
2023-05-18T14:29:48.347Z,72.30
2023-05-18T14:32:15.107Z,73.30
2023-05-18T14:34:41.914Z,72.50
2023-05-18T14:37:08.735Z,72.00
2023-05-18T14:39:35.926Z,72.20
2023-05-18T14:42:02.667Z,70.50
2023-05-18T14:44:29.725Z,71.80
2023-05-18T14:46:56.933Z,71.50
2023-05-18T14:49:23.726Z,71.60
2023-05-18T14:51:50.502Z,71.40
2023-05-18T14:54:18.910Z,71.70
2023-05-18T14:56:45.794Z,71.50
2023-05-18T14:59:12.491Z,71.00
2023-05-18T15:01:39.233Z,71.20
2023-05-18T15:04:06.103Z,71.50
2023-05-18T15:06:33.288Z,72.00
2023-05-18T15:09:00.908Z,72.10
2023-05-18T15:11:27.593Z,71.80
2023-05-18T15:13:54.260Z,71.60
2023-05-18T15:16:21.124Z,73.00
2023-05-18T15:18:47.872Z,71.50
2023-05-18T15:21:14.600Z,73.20
2023-05-18T15:23:41.270Z,71.40
2023-05-18T15:26:09.199Z,72.30
2023-05-18T15:28:36.208Z,72.60
2023-05-18T15:31:02.921Z,71.10
2023-05-18T15:33:29.600Z,71.80
2023-05-18T15:35:56.284Z,71.70
2023-05-18T15:38:22.976Z,72.30
2023-05-18T15:40:50.356Z,72.00
2023-05-18T15:43:17.482Z,71.60
2023-05-18T15:45:44.380Z,72.10
2023-05-18T15:48:11.185Z,72.00
2023-05-18T15:50:37.981Z,72.60
2023-05-18T15:53:04.679Z,72.70
2023-05-18T15:55:31.551Z,73.00
2023-05-18T15:57:58.247Z,72.60
2023-05-18T16:00:26.231Z,71.50
2023-05-18T16:02:52.998Z,72.60
2023-05-18T16:05:19.761Z,72.10
2023-05-18T16:07:46.763Z,71.90
2023-05-18T16:10:14.284Z,72.60
2023-05-18T16:12:41.145Z,72.50
2023-05-18T16:15:08.319Z,72.50
2023-05-18T16:17:35.006Z,72.00
2023-05-18T16:20:03.851Z,71.90
2023-05-18T16:22:30.822Z,71.80
2023-05-18T16:24:58.801Z,72.80
2023-05-18T16:27:25.615Z,72.20
2023-05-18T16:29:52.367Z,72.10
2023-05-18T16:32:19.308Z,72.30
2023-05-18T16:34:45.945Z,72.40
2023-05-18T16:37:12.654Z,72.70
2023-05-18T16:39:39.322Z,73.40
2023-05-18T16:42:07.578Z,72.90
2023-05-18T16:44:35.275Z,72.60
2023-05-18T16:47:02.179Z,73.10
2023-05-18T16:49:28.864Z,72.90
2023-05-18T16:51:55.625Z,72.70
2023-05-18T16:54:22.375Z,72.90
2023-05-18T16:56:49.606Z,73.20
2023-05-18T16:59:16.317Z,72.80
2023-05-18T17:01:43.047Z,73.40
2023-05-18T17:04:09.848Z,73.50
2023-05-18T17:06:37.652Z,73.40
2023-05-18T17:09:06.259Z,73.70
2023-05-18T17:11:33.297Z,73.70
2023-05-18T17:14:01.424Z,74.10
2023-05-18T17:16:30.042Z,74.30
2023-05-18T17:18:57.512Z,73.90
2023-05-18T17:21:24.789Z,73.90
2023-05-18T17:23:51.508Z,74.30
2023-05-18T17:26:18.205Z,74.10
2023-05-18T17:28:45.026Z,74.30
2023-05-18T17:31:11.852Z,74.40
2023-05-18T17:33:38.523Z,74.00
2023-05-18T17:36:05.403Z,74.50
2023-05-18T17:38:32.076Z,74.20
2023-05-18T17:40:58.729Z,74.50
2023-05-18T17:43:25.521Z,74.80
2023-05-18T17:45:52.217Z,75.60
2023-05-18T17:48:19.013Z,75.40
2023-05-18T17:50:47.491Z,75.40
2023-05-18T17:53:14.157Z,75.60
2023-05-18T17:55:41.541Z,75.90
2023-05-18T17:58:08.300Z,75.70
2023-05-18T18:00:35.057Z,75.60
2023-05-18T18:03:01.813Z,75.90
2023-05-18T18:05:28.648Z,75.50
2023-05-18T18:07:55.449Z,76.10
2023-05-18T18:10:22.271Z,76.20
2023-05-18T18:12:49.002Z,76.70
2023-05-18T18:15:16.218Z,76.80
2023-05-18T18:17:43.028Z,76.80
2023-05-18T18:20:10.050Z,76.10
2023-05-18T18:22:36.708Z,76.30
2023-05-18T18:25:03.512Z,76.90
2023-05-18T18:27:30.304Z,77.20
2023-05-18T18:29:57.107Z,76.70
2023-05-18T18:32:23.839Z,77.10
2023-05-18T18:34:51.043Z,77.20
2023-05-18T18:37:18.212Z,77.40
2023-05-18T18:39:44.893Z,77.40
2023-05-18T18:42:11.744Z,77.80
2023-05-18T18:44:38.556Z,77.90
2023-05-18T18:47:05.561Z,78.20
2023-05-18T18:49:32.250Z,78.10
2023-05-18T18:51:59.182Z,78.20
2023-05-18T18:54:26.292Z,78.40
2023-05-18T18:56:53.249Z,78.40
2023-05-18T18:59:19.959Z,78.70
2023-05-18T19:01:46.721Z,78.70
2023-05-18T19:04:13.634Z,78.70
2023-05-18T19:06:42.563Z,79.20
2023-05-18T19:09:09.257Z,79.40
2023-05-18T19:11:36.670Z,79.90
2023-05-18T19:14:04.370Z,79.60
2023-05-18T19:16:32.798Z,80.00
2023-05-18T19:18:59.598Z,80.10
2023-05-18T19:21:26.359Z,80.20
2023-05-18T19:23:53.054Z,80.20
2023-05-18T19:26:19.867Z,80.30
2023-05-18T19:28:46.639Z,80.50
2023-05-18T19:31:13.377Z,80.40
2023-05-18T19:33:40.126Z,80.60
2023-05-18T19:36:06.899Z,81.10
2023-05-18T19:38:33.596Z,81.00
2023-05-18T19:41:00.317Z,81.20
2023-05-18T19:43:27.014Z,81.30
2023-05-18T19:45:53.707Z,81.50
2023-05-18T19:48:20.451Z,81.50
2023-05-18T19:50:47.444Z,82.40
2023-05-18T19:53:14.138Z,82.30
2023-05-18T19:55:40.940Z,82.40
2023-05-18T19:58:07.674Z,82.50
2023-05-18T20:00:34.713Z,82.50
2023-05-18T20:03:03.550Z,82.60
2023-05-18T20:05:30.332Z,82.90
2023-05-18T20:07:58.091Z,82.90
2023-05-18T20:10:25.238Z,83.00
2023-05-18T20:12:51.942Z,82.80
2023-05-18T20:15:19.033Z,83.10
2023-05-18T20:17:46.033Z,82.90
2023-05-18T20:20:12.765Z,83.00
2023-05-18T20:22:39.961Z,83.10
2023-05-18T20:25:07.325Z,83.10
2023-05-18T20:27:34.172Z,83.10
2023-05-18T20:30:00.889Z,83.20
2023-05-18T20:32:28.775Z,83.10
2023-05-18T20:34:55.587Z,83.40
2023-05-18T20:37:22.575Z,83.40
2023-05-18T20:39:50.795Z,83.40
2023-05-18T20:42:21.584Z,83.60
2023-05-18T20:44:52.277Z,83.40
2023-05-18T20:47:20.233Z,83.80
2023-05-18T20:49:49.887Z,83.90
2023-05-18T20:52:16.663Z,84.00
2023-05-18T20:54:43.853Z,84.00
2023-05-18T20:57:10.559Z,84.30
2023-05-18T20:59:37.224Z,84.40
2023-05-18T21:02:04.521Z,84.40
2023-05-18T21:04:31.418Z,84.90
2023-05-18T21:06:58.236Z,85.20
2023-05-18T21:09:24.922Z,85.40
2023-05-18T21:11:51.595Z,85.40
2023-05-18T21:14:18.245Z,85.60
2023-05-18T21:16:45.385Z,85.70
2023-05-18T21:19:12.138Z,85.90
2023-05-18T21:21:38.844Z,86.10
2023-05-18T21:24:05.747Z,86.20
2023-05-18T21:26:32.724Z,86.10
2023-05-18T21:28:59.374Z,86.30
2023-05-18T21:31:26.214Z,86.20
2023-05-18T21:33:52.989Z,86.30
2023-05-18T21:36:35.058Z,86.40
2023-05-18T21:39:05.648Z,86.70
2023-05-18T21:41:35.056Z,87.00
2023-05-18T21:44:01.722Z,87.10
2023-05-18T21:46:28.566Z,87.30
2023-05-18T21:48:55.504Z,87.60
2023-05-18T21:51:22.245Z,87.70
2023-05-18T21:53:48.977Z,87.90
2023-05-18T21:56:15.821Z,87.60
2023-05-18T21:58:42.549Z,87.90
2023-05-18T22:01:09.306Z,88.10
2023-05-18T22:03:36.009Z,88.10
2023-05-18T22:06:02.691Z,88.20
2023-05-18T22:08:30.485Z,88.20
2023-05-18T22:10:57.131Z,88.30
2023-05-18T22:13:23.780Z,88.20
2023-05-18T22:15:50.420Z,88.30
2023-05-18T22:18:17.482Z,88.50
2023-05-18T22:20:44.511Z,88.50
2023-05-18T22:23:11.416Z,88.60
2023-05-18T22:25:38.128Z,88.70
2023-05-18T22:28:04.868Z,88.70
2023-05-18T22:30:33.485Z,88.90
2023-05-18T22:33:00.384Z,88.80
2023-05-18T22:35:27.123Z,88.90
2023-05-18T22:37:53.785Z,89.00
2023-05-18T22:40:20.579Z,89.30
2023-05-18T22:42:47.249Z,89.60
2023-05-18T22:45:14.004Z,89.70
2023-05-18T22:47:40.785Z,89.80
2023-05-18T22:50:08.407Z,89.60
2023-05-18T22:52:36.617Z,90.00
2023-05-18T22:55:03.719Z,90.10
2023-05-18T22:57:30.378Z,90.20
2023-05-18T22:59:57.056Z,90.00
2023-05-18T23:02:23.769Z,90.10
2023-05-18T23:04:50.576Z,90.20
2023-05-18T23:07:17.593Z,90.00
2023-05-18T23:09:44.272Z,90.10
2023-05-18T23:12:11.524Z,90.10
2023-05-18T23:14:38.229Z,90.00
2023-05-18T23:17:05.037Z,89.90
2023-05-18T23:19:33.981Z,90.00
2023-05-18T23:22:00.841Z,89.90
2023-05-18T23:24:27.536Z,90.10
2023-05-18T23:26:54.274Z,89.90
2023-05-18T23:29:21.047Z,89.80
2023-05-18T23:31:47.692Z,89.90
2023-05-18T23:34:14.553Z,89.60
2023-05-18T23:36:42.642Z,89.60
2023-05-18T23:39:10.257Z,89.50
2023-05-18T23:41:37.947Z,89.50
2023-05-18T23:44:05.113Z,89.80
2023-05-18T23:46:32.124Z,89.70
2023-05-18T23:48:59.598Z,89.60
2023-05-18T23:51:30.724Z,89.70
2023-05-18T23:53:58.532Z,89.50
2023-05-18T23:56:25.415Z,89.60
2023-05-18T23:58:52.360Z,89.50
